sensor_id;sensor_type;location;lat;lon;timestamp;temperature;humidity
1455;DHT22;721;48.168;12.818;2023-03-14T00:00:20;9.30;17.50
1455;DHT22;721;48.168;12.818;2023-03-14T00:02:51;9.30;18.80
1455;DHT22;721;48.168;12.818;2023-03-14T00:05:19;9.30;19.00
1455;DHT22;721;48.168;12.818;2023-03-14T00:07:45;9.30;18.80
1455;DHT22;721;48.168;12.818;2023-03-14T00:10:14;9.40;17.50
1455;DHT22;721;48.168;12.818;2023-03-14T00:12:41;9.70;15.30
1455;DHT22;721;48.168;12.818;2023-03-14T00:15:10;9.80;14.50
1455;DHT22;721;48.168;12.818;2023-03-14T00:17:38;9.90;14.40
1455;DHT22;721;48.168;12.818;2023-03-14T00:20:07;10.00;13.10
1455;DHT22;721;48.168;12.818;2023-03-14T00:22:35;10.00;12.60
1455;DHT22;721;48.168;12.818;2023-03-14T00:25:04;10.10;12.30
1455;DHT22;721;48.168;12.818;2023-03-14T00:27:31;10.10;12.80
1455;DHT22;721;48.168;12.818;2023-03-14T00:29:57;10.20;12.20
1455;DHT22;721;48.168;12.818;2023-03-14T00:32:26;10.10;12.10
1455;DHT22;721;48.168;12.818;2023-03-14T00:34:52;10.20;11.60
1455;DHT22;721;48.168;12.818;2023-03-14T00:37:19;10.30;11.60
1455;DHT22;721;48.168;12.818;2023-03-14T00:39:46;10.40;10.80
1455;DHT22;721;48.168;12.818;2023-03-14T00:42:13;10.60;9.80
1455;DHT22;721;48.168;12.818;2023-03-14T00:44:40;10.60;9.20
1455;DHT22;721;48.168;12.818;2023-03-14T00:47:06;10.70;8.70
1455;DHT22;721;48.168;12.818;2023-03-14T00:49:35;10.70;8.30
1455;DHT22;721;48.168;12.818;2023-03-14T00:52:02;10.80;7.50
1455;DHT22;721;48.168;12.818;2023-03-14T00:54:28;10.70;7.50
1455;DHT22;721;48.168;12.818;2023-03-14T00:56:56;10.70;7.40
1455;DHT22;721;48.168;12.818;2023-03-14T00:59:22;10.70;7.00
1455;DHT22;721;48.168;12.818;2023-03-14T01:01:49;10.60;7.60
1455;DHT22;721;48.168;12.818;2023-03-14T01:04:16;10.60;7.70
1455;DHT22;721;48.168;12.818;2023-03-14T01:06:44;10.60;7.50
1455;DHT22;721;48.168;12.818;2023-03-14T01:09:11;10.40;8.30
1455;DHT22;721;48.168;12.818;2023-03-14T01:11:38;10.40;8.90
1455;DHT22;721;48.168;12.818;2023-03-14T01:14:05;10.10;11.30
1455;DHT22;721;48.168;12.818;2023-03-14T01:16:32;9.70;13.60
1455;DHT22;721;48.168;12.818;2023-03-14T01:19:00;9.70;13.70
1455;DHT22;721;48.168;12.818;2023-03-14T01:21:28;9.60;15.70
1455;DHT22;721;48.168;12.818;2023-03-14T01:23:58;9.50;16.00
1455;DHT22;721;48.168;12.818;2023-03-14T01:26:27;9.60;15.20
1455;DHT22;721;48.168;12.818;2023-03-14T01:28:55;9.60;15.20
1455;DHT22;721;48.168;12.818;2023-03-14T01:31:23;9.40;17.00
1455;DHT22;721;48.168;12.818;2023-03-14T01:33:51;9.20;17.30
1455;DHT22;721;48.168;12.818;2023-03-14T01:36:18;9.10;19.30
1455;DHT22;721;48.168;12.818;2023-03-14T01:38:45;9.00;20.70
1455;DHT22;721;48.168;12.818;2023-03-14T01:41:15;9.00;21.20
1455;DHT22;721;48.168;12.818;2023-03-14T01:43:43;9.00;21.00
1455;DHT22;721;48.168;12.818;2023-03-14T01:46:25;9.10;20.40
1455;DHT22;721;48.168;12.818;2023-03-14T01:48:55;9.00;22.20
1455;DHT22;721;48.168;12.818;2023-03-14T01:51:27;9.00;22.50
1455;DHT22;721;48.168;12.818;2023-03-14T01:54:04;9.00;23.10
1455;DHT22;721;48.168;12.818;2023-03-14T01:56:35;9.20;23.90
1455;DHT22;721;48.168;12.818;2023-03-14T01:59:04;9.20;22.90
1455;DHT22;721;48.168;12.818;2023-03-14T02:01:32;9.30;23.00
1455;DHT22;721;48.168;12.818;2023-03-14T02:04:01;9.30;23.70
1455;DHT22;721;48.168;12.818;2023-03-14T02:06:33;9.30;24.70
1455;DHT22;721;48.168;12.818;2023-03-14T02:09:02;9.40;24.60
1455;DHT22;721;48.168;12.818;2023-03-14T02:11:30;9.40;24.40
1455;DHT22;721;48.168;12.818;2023-03-14T02:13:58;9.50;24.50
1455;DHT22;721;48.168;12.818;2023-03-14T02:16:25;9.60;24.30
1455;DHT22;721;48.168;12.818;2023-03-14T02:18:52;9.60;22.80
1455;DHT22;721;48.168;12.818;2023-03-14T02:21:24;9.80;21.70
1455;DHT22;721;48.168;12.818;2023-03-14T02:24:01;9.80;20.80
1455;DHT22;721;48.168;12.818;2023-03-14T02:26:34;9.80;21.50
1455;DHT22;721;48.168;12.818;2023-03-14T02:29:04;9.80;21.00
1455;DHT22;721;48.168;12.818;2023-03-14T02:31:31;9.90;20.90
1455;DHT22;721;48.168;12.818;2023-03-14T02:33:58;9.90;20.20
1455;DHT22;721;48.168;12.818;2023-03-14T02:36:26;9.90;21.10
1455;DHT22;721;48.168;12.818;2023-03-14T02:38:58;9.90;21.30
1455;DHT22;721;48.168;12.818;2023-03-14T02:41:29;9.80;22.00
1455;DHT22;721;48.168;12.818;2023-03-14T02:43:56;9.80;22.00
1455;DHT22;721;48.168;12.818;2023-03-14T02:46:24;9.80;22.70
1455;DHT22;721;48.168;12.818;2023-03-14T02:48:54;9.70;24.20
1455;DHT22;721;48.168;12.818;2023-03-14T02:51:23;9.60;29.20
1455;DHT22;721;48.168;12.818;2023-03-14T02:53:50;9.50;39.50
1455;DHT22;721;48.168;12.818;2023-03-14T02:56:17;9.60;42.40
1455;DHT22;721;48.168;12.818;2023-03-14T02:58:44;9.70;44.70
1455;DHT22;721;48.168;12.818;2023-03-14T03:01:10;9.90;46.60
1455;DHT22;721;48.168;12.818;2023-03-14T03:03:39;10.00;46.20
1455;DHT22;721;48.168;12.818;2023-03-14T03:06:06;10.00;48.90
1455;DHT22;721;48.168;12.818;2023-03-14T03:08:33;10.00;51.20
1455;DHT22;721;48.168;12.818;2023-03-14T03:11:00;10.00;53.60
1455;DHT22;721;48.168;12.818;2023-03-14T03:13:27;9.90;56.70
1455;DHT22;721;48.168;12.818;2023-03-14T03:15:53;9.90;60.00
1455;DHT22;721;48.168;12.818;2023-03-14T03:18:20;9.80;62.30
1455;DHT22;721;48.168;12.818;2023-03-14T03:20:48;9.80;63.70
1455;DHT22;721;48.168;12.818;2023-03-14T03:23:15;9.70;65.70
1455;DHT22;721;48.168;12.818;2023-03-14T03:25:42;9.70;67.80
1455;DHT22;721;48.168;12.818;2023-03-14T03:28:13;9.60;68.20
1455;DHT22;721;48.168;12.818;2023-03-14T03:30:41;9.60;69.10
1455;DHT22;721;48.168;12.818;2023-03-14T03:33:09;9.60;69.40
1455;DHT22;721;48.168;12.818;2023-03-14T03:35:42;9.60;70.50
1455;DHT22;721;48.168;12.818;2023-03-14T03:38:10;9.60;70.20
1455;DHT22;721;48.168;12.818;2023-03-14T03:40:38;9.70;69.60
1455;DHT22;721;48.168;12.818;2023-03-14T03:43:05;9.60;69.10
1455;DHT22;721;48.168;12.818;2023-03-14T03:45:31;9.70;68.70
1455;DHT22;721;48.168;12.818;2023-03-14T03:47:58;9.60;68.40
1455;DHT22;721;48.168;12.818;2023-03-14T03:50:25;9.60;68.00
1455;DHT22;721;48.168;12.818;2023-03-14T03:52:52;9.70;67.50
1455;DHT22;721;48.168;12.818;2023-03-14T03:55:20;9.70;67.90
1455;DHT22;721;48.168;12.818;2023-03-14T03:57:47;9.60;67.90
1455;DHT22;721;48.168;12.818;2023-03-14T04:00:14;9.60;68.20
1455;DHT22;721;48.168;12.818;2023-03-14T04:02:40;9.60;67.40
1455;DHT22;721;48.168;12.818;2023-03-14T04:05:08;9.60;67.20
1455;DHT22;721;48.168;12.818;2023-03-14T04:07:35;9.60;67.20
1455;DHT22;721;48.168;12.818;2023-03-14T04:10:02;9.70;66.30
1455;DHT22;721;48.168;12.818;2023-03-14T04:12:30;9.70;65.90
1455;DHT22;721;48.168;12.818;2023-03-14T04:14:57;9.60;66.00
1455;DHT22;721;48.168;12.818;2023-03-14T04:17:24;9.70;66.60
1455;DHT22;721;48.168;12.818;2023-03-14T04:19:51;9.60;66.10
1455;DHT22;721;48.168;12.818;2023-03-14T04:22:19;9.60;67.40
1455;DHT22;721;48.168;12.818;2023-03-14T04:24:46;9.60;67.30
1455;DHT22;721;48.168;12.818;2023-03-14T04:27:12;9.50;67.20
1455;DHT22;721;48.168;12.818;2023-03-14T04:29:42;9.50;68.20
1455;DHT22;721;48.168;12.818;2023-03-14T04:32:08;9.60;68.60
1455;DHT22;721;48.168;12.818;2023-03-14T04:34:35;9.60;67.90
1455;DHT22;721;48.168;12.818;2023-03-14T04:37:03;9.50;68.20
1455;DHT22;721;48.168;12.818;2023-03-14T04:39:30;9.40;68.30
1455;DHT22;721;48.168;12.818;2023-03-14T04:41:56;9.40;69.90
1455;DHT22;721;48.168;12.818;2023-03-14T04:44:23;9.40;71.30
1455;DHT22;721;48.168;12.818;2023-03-14T04:46:52;9.50;70.80
1455;DHT22;721;48.168;12.818;2023-03-14T04:49:18;9.50;71.00
1455;DHT22;721;48.168;12.818;2023-03-14T04:51:45;9.40;71.70
1455;DHT22;721;48.168;12.818;2023-03-14T04:54:12;9.30;72.10
1455;DHT22;721;48.168;12.818;2023-03-14T04:56:39;9.40;72.70
1455;DHT22;721;48.168;12.818;2023-03-14T04:59:06;9.40;72.70
1455;DHT22;721;48.168;12.818;2023-03-14T05:01:33;9.40;72.30
1455;DHT22;721;48.168;12.818;2023-03-14T05:04:02;9.40;71.20
1455;DHT22;721;48.168;12.818;2023-03-14T05:06:29;9.40;71.30
1455;DHT22;721;48.168;12.818;2023-03-14T05:08:56;9.40;72.20
1455;DHT22;721;48.168;12.818;2023-03-14T05:11:22;9.30;72.10
1455;DHT22;721;48.168;12.818;2023-03-14T05:13:49;9.40;72.50
1455;DHT22;721;48.168;12.818;2023-03-14T05:16:16;9.40;72.20
1455;DHT22;721;48.168;12.818;2023-03-14T05:18:43;9.40;73.30
1455;DHT22;721;48.168;12.818;2023-03-14T05:21:11;9.40;72.90
1455;DHT22;721;48.168;12.818;2023-03-14T05:23:38;9.40;72.80
1455;DHT22;721;48.168;12.818;2023-03-14T05:26:05;9.30;72.10
1455;DHT22;721;48.168;12.818;2023-03-14T05:28:32;9.30;72.10
1455;DHT22;721;48.168;12.818;2023-03-14T05:30:59;9.20;72.10
1455;DHT22;721;48.168;12.818;2023-03-14T05:33:26;9.20;71.90
1455;DHT22;721;48.168;12.818;2023-03-14T05:35:52;9.10;69.00
1455;DHT22;721;48.168;12.818;2023-03-14T05:38:21;9.10;70.80
1455;DHT22;721;48.168;12.818;2023-03-14T05:40:47;9.00;70.80
1455;DHT22;721;48.168;12.818;2023-03-14T05:43:14;9.10;71.00
1455;DHT22;721;48.168;12.818;2023-03-14T05:45:42;9.00;71.70
1455;DHT22;721;48.168;12.818;2023-03-14T05:48:09;8.90;70.30
1455;DHT22;721;48.168;12.818;2023-03-14T05:50:36;9.00;70.00
1455;DHT22;721;48.168;12.818;2023-03-14T05:53:03;9.00;69.10
1455;DHT22;721;48.168;12.818;2023-03-14T05:55:31;9.10;69.60
1455;DHT22;721;48.168;12.818;2023-03-14T05:57:58;9.10;68.30
1455;DHT22;721;48.168;12.818;2023-03-14T06:00:25;9.00;67.70
1455;DHT22;721;48.168;12.818;2023-03-14T06:02:52;9.10;67.80
1455;DHT22;721;48.168;12.818;2023-03-14T06:05:19;9.10;66.90
1455;DHT22;721;48.168;12.818;2023-03-14T06:07:45;9.10;64.50
1455;DHT22;721;48.168;12.818;2023-03-14T06:10:12;9.20;63.70
1455;DHT22;721;48.168;12.818;2023-03-14T06:12:40;9.20;63.20
1455;DHT22;721;48.168;12.818;2023-03-14T06:15:08;9.30;62.30
1455;DHT22;721;48.168;12.818;2023-03-14T06:17:35;9.30;60.80
1455;DHT22;721;48.168;12.818;2023-03-14T06:20:02;9.40;60.30
1455;DHT22;721;48.168;12.818;2023-03-14T06:22:29;9.40;58.40
1455;DHT22;721;48.168;12.818;2023-03-14T06:24:56;9.40;59.40
1455;DHT22;721;48.168;12.818;2023-03-14T06:27:22;9.30;57.90
1455;DHT22;721;48.168;12.818;2023-03-14T06:29:51;9.40;58.90
1455;DHT22;721;48.168;12.818;2023-03-14T06:32:17;9.20;59.00
1455;DHT22;721;48.168;12.818;2023-03-14T06:34:44;9.30;59.50
1455;DHT22;721;48.168;12.818;2023-03-14T06:37:11;9.30;59.50
1455;DHT22;721;48.168;12.818;2023-03-14T06:39:38;9.20;61.20
1455;DHT22;721;48.168;12.818;2023-03-14T06:42:05;9.30;59.50
1455;DHT22;721;48.168;12.818;2023-03-14T06:44:32;9.40;59.10
1455;DHT22;721;48.168;12.818;2023-03-14T06:47:00;9.40;59.20
1455;DHT22;721;48.168;12.818;2023-03-14T06:49:27;9.40;59.50
1455;DHT22;721;48.168;12.818;2023-03-14T06:51:54;9.40;58.30
1455;DHT22;721;48.168;12.818;2023-03-14T06:54:21;9.20;58.70
1455;DHT22;721;48.168;12.818;2023-03-14T06:56:47;9.20;59.80
1455;DHT22;721;48.168;12.818;2023-03-14T06:59:14;9.20;60.20
1455;DHT22;721;48.168;12.818;2023-03-14T07:01:41;9.30;60.50
1455;DHT22;721;48.168;12.818;2023-03-14T07:04:10;9.20;61.30
1455;DHT22;721;48.168;12.818;2023-03-14T07:06:37;9.20;60.90
1455;DHT22;721;48.168;12.818;2023-03-14T07:09:05;9.20;61.10
1455;DHT22;721;48.168;12.818;2023-03-14T07:11:32;9.10;61.30
1455;DHT22;721;48.168;12.818;2023-03-14T07:13:58;9.10;62.50
1455;DHT22;721;48.168;12.818;2023-03-14T07:16:25;9.10;63.60
1455;DHT22;721;48.168;12.818;2023-03-14T07:18:56;9.00;63.10
1455;DHT22;721;48.168;12.818;2023-03-14T07:24:46;9.00;63.40
1455;DHT22;721;48.168;12.818;2023-03-14T07:27:13;9.10;63.80
1455;DHT22;721;48.168;12.818;2023-03-14T07:29:40;9.10;63.60
1455;DHT22;721;48.168;12.818;2023-03-14T07:32:07;9.10;64.70
1455;DHT22;721;48.168;12.818;2023-03-14T07:34:35;9.10;63.60
1455;DHT22;721;48.168;12.818;2023-03-14T07:37:01;9.00;63.50
1455;DHT22;721;48.168;12.818;2023-03-14T07:39:30;9.00;63.90
1455;DHT22;721;48.168;12.818;2023-03-14T07:41:58;9.10;63.60
1455;DHT22;721;48.168;12.818;2023-03-14T07:44:25;9.20;63.70
1455;DHT22;721;48.168;12.818;2023-03-14T07:46:52;9.10;63.60
1455;DHT22;721;48.168;12.818;2023-03-14T07:49:19;9.10;62.60
1455;DHT22;721;48.168;12.818;2023-03-14T07:51:47;9.10;62.10
1455;DHT22;721;48.168;12.818;2023-03-14T07:54:14;9.00;61.90
1455;DHT22;721;48.168;12.818;2023-03-14T07:56:41;9.00;62.10
1455;DHT22;721;48.168;12.818;2023-03-14T07:59:09;9.00;62.00
1455;DHT22;721;48.168;12.818;2023-03-14T08:01:36;8.90;62.20
1455;DHT22;721;48.168;12.818;2023-03-14T08:04:03;9.00;63.50
1455;DHT22;721;48.168;12.818;2023-03-14T08:06:30;9.00;64.30
1455;DHT22;721;48.168;12.818;2023-03-14T08:08:56;9.00;64.40
1455;DHT22;721;48.168;12.818;2023-03-14T08:11:23;9.20;65.50
1455;DHT22;721;48.168;12.818;2023-03-14T08:13:50;8.90;66.70
1455;DHT22;721;48.168;12.818;2023-03-14T08:16:19;8.80;67.60
1455;DHT22;721;48.168;12.818;2023-03-14T08:18:46;8.80;69.70
1455;DHT22;721;48.168;12.818;2023-03-14T08:21:38;8.70;72.30
1455;DHT22;721;48.168;12.818;2023-03-14T08:24:05;8.70;70.80
1455;DHT22;721;48.168;12.818;2023-03-14T08:26:32;8.70;71.60
1455;DHT22;721;48.168;12.818;2023-03-14T08:28:58;8.70;72.10
1455;DHT22;721;48.168;12.818;2023-03-14T08:31:27;8.60;73.10
1455;DHT22;721;48.168;12.818;2023-03-14T08:33:53;8.70;73.70
1455;DHT22;721;48.168;12.818;2023-03-14T08:36:20;8.70;73.90
1455;DHT22;721;48.168;12.818;2023-03-14T08:38:47;8.70;75.40
1455;DHT22;721;48.168;12.818;2023-03-14T08:44:36;8.70;74.80
1455;DHT22;721;48.168;12.818;2023-03-14T08:47:04;8.70;75.10
1455;DHT22;721;48.168;12.818;2023-03-14T08:49:37;8.80;74.20
1455;DHT22;721;48.168;12.818;2023-03-14T08:52:04;8.70;74.60
1455;DHT22;721;48.168;12.818;2023-03-14T08:54:31;8.70;74.40
1455;DHT22;721;48.168;12.818;2023-03-14T08:56:58;8.80;73.60
1455;DHT22;721;48.168;12.818;2023-03-14T08:59:25;8.80;72.30
1455;DHT22;721;48.168;12.818;2023-03-14T09:01:52;9.00;71.90
1455;DHT22;721;48.168;12.818;2023-03-14T09:04:21;8.90;70.10
1455;DHT22;721;48.168;12.818;2023-03-14T09:06:48;8.90;68.60
1455;DHT22;721;48.168;12.818;2023-03-14T09:09:15;9.00;67.70
1455;DHT22;721;48.168;12.818;2023-03-14T09:11:42;9.00;63.90
1455;DHT22;721;48.168;12.818;2023-03-14T09:14:09;9.10;62.70
1455;DHT22;721;48.168;12.818;2023-03-14T09:16:36;9.10;61.30
1455;DHT22;721;48.168;12.818;2023-03-14T09:19:03;9.10;60.70
1455;DHT22;721;48.168;12.818;2023-03-14T09:21:31;9.20;60.60
1455;DHT22;721;48.168;12.818;2023-03-14T09:23:58;9.30;59.50
1455;DHT22;721;48.168;12.818;2023-03-14T09:26:24;9.30;59.50
1455;DHT22;721;48.168;12.818;2023-03-14T09:28:51;9.30;58.80
1455;DHT22;721;48.168;12.818;2023-03-14T09:31:18;9.30;56.70
1455;DHT22;721;48.168;12.818;2023-03-14T09:33:45;9.40;54.00
1455;DHT22;721;48.168;12.818;2023-03-14T09:36:12;9.40;49.00
1455;DHT22;721;48.168;12.818;2023-03-14T09:38:40;9.40;48.10
1455;DHT22;721;48.168;12.818;2023-03-14T09:41:14;9.50;47.10
1455;DHT22;721;48.168;12.818;2023-03-14T09:43:42;9.50;46.10
1455;DHT22;721;48.168;12.818;2023-03-14T09:46:11;9.60;45.20
1455;DHT22;721;48.168;12.818;2023-03-14T09:48:39;9.70;43.40
1455;DHT22;721;48.168;12.818;2023-03-14T09:51:12;9.80;43.90
1455;DHT22;721;48.168;12.818;2023-03-14T09:53:42;9.90;45.00
1455;DHT22;721;48.168;12.818;2023-03-14T09:56:13;9.80;45.30
1455;DHT22;721;48.168;12.818;2023-03-14T09:58:43;9.70;43.10
1455;DHT22;721;48.168;12.818;2023-03-14T10:01:13;9.50;43.00
1455;DHT22;721;48.168;12.818;2023-03-14T10:03:42;9.40;44.90
1455;DHT22;721;48.168;12.818;2023-03-14T10:06:12;9.30;47.50
1455;DHT22;721;48.168;12.818;2023-03-14T10:08:41;9.30;48.70
1455;DHT22;721;48.168;12.818;2023-03-14T10:11:13;9.30;48.70
1455;DHT22;721;48.168;12.818;2023-03-14T10:13:49;9.20;48.70
1455;DHT22;721;48.168;12.818;2023-03-14T10:16:16;9.20;51.40
1455;DHT22;721;48.168;12.818;2023-03-14T10:18:45;9.10;53.00
1455;DHT22;721;48.168;12.818;2023-03-14T10:21:20;9.00;53.80
1455;DHT22;721;48.168;12.818;2023-03-14T10:23:49;8.90;55.80
1455;DHT22;721;48.168;12.818;2023-03-14T10:26:17;8.90;59.10
1455;DHT22;721;48.168;12.818;2023-03-14T10:28:45;8.90;59.40
1455;DHT22;721;48.168;12.818;2023-03-14T10:31:13;8.80;59.10
1455;DHT22;721;48.168;12.818;2023-03-14T10:33:40;8.70;61.30
1455;DHT22;721;48.168;12.818;2023-03-14T10:36:17;8.70;61.90
1455;DHT22;721;48.168;12.818;2023-03-14T10:38:45;8.80;64.90
1455;DHT22;721;48.168;12.818;2023-03-14T10:41:19;8.70;65.40
1455;DHT22;721;48.168;12.818;2023-03-14T10:43:50;8.70;65.30
1455;DHT22;721;48.168;12.818;2023-03-14T10:46:19;8.70;66.00
1455;DHT22;721;48.168;12.818;2023-03-14T10:48:47;8.70;67.90
1455;DHT22;721;48.168;12.818;2023-03-14T10:51:20;8.70;66.40
1455;DHT22;721;48.168;12.818;2023-03-14T10:53:57;8.70;65.10
1455;DHT22;721;48.168;12.818;2023-03-14T10:59:47;8.80;61.80
1455;DHT22;721;48.168;12.818;2023-03-14T11:05:21;8.90;62.50
1455;DHT22;721;48.168;12.818;2023-03-14T11:07:53;8.90;63.50
1455;DHT22;721;48.168;12.818;2023-03-14T11:10:26;8.90;64.30
1455;DHT22;721;48.168;12.818;2023-03-14T11:13:04;8.80;65.20
1455;DHT22;721;48.168;12.818;2023-03-14T11:15:38;8.80;65.30
1455;DHT22;721;48.168;12.818;2023-03-14T11:18:36;8.70;60.90
1455;DHT22;721;48.168;12.818;2023-03-14T11:21:11;8.70;63.30
1455;DHT22;721;48.168;12.818;2023-03-14T11:23:46;8.80;62.50
1455;DHT22;721;48.168;12.818;2023-03-14T11:26:25;8.80;62.90
1455;DHT22;721;48.168;12.818;2023-03-14T11:28:57;8.90;61.30
1455;DHT22;721;48.168;12.818;2023-03-14T11:31:27;8.90;60.80
1455;DHT22;721;48.168;12.818;2023-03-14T11:33:59;8.90;60.60
1455;DHT22;721;48.168;12.818;2023-03-14T11:36:33;8.80;61.80
1455;DHT22;721;48.168;12.818;2023-03-14T11:39:08;8.80;60.70
1455;DHT22;721;48.168;12.818;2023-03-14T11:41:49;8.90;62.20
1455;DHT22;721;48.168;12.818;2023-03-14T11:44:19;8.90;61.00
1455;DHT22;721;48.168;12.818;2023-03-14T11:46:50;8.80;62.30
1455;DHT22;721;48.168;12.818;2023-03-14T11:49:30;8.80;60.60
1455;DHT22;721;48.168;12.818;2023-03-14T11:52:00;8.80;59.50
1455;DHT22;721;48.168;12.818;2023-03-14T11:54:35;8.70;60.30
1455;DHT22;721;48.168;12.818;2023-03-14T11:57:12;8.70;60.10
1455;DHT22;721;48.168;12.818;2023-03-14T11:59:47;8.70;59.10
1455;DHT22;721;48.168;12.818;2023-03-14T12:02:22;8.70;58.90
1455;DHT22;721;48.168;12.818;2023-03-14T12:08:30;8.70;58.10
1455;DHT22;721;48.168;12.818;2023-03-14T12:11:00;8.60;57.80
1455;DHT22;721;48.168;12.818;2023-03-14T12:13:29;8.60;57.20
1455;DHT22;721;48.168;12.818;2023-03-14T12:15:57;8.50;59.60
1455;DHT22;721;48.168;12.818;2023-03-14T12:18:29;8.50;56.80
1455;DHT22;721;48.168;12.818;2023-03-14T12:20:59;8.50;58.20
1455;DHT22;721;48.168;12.818;2023-03-14T12:23:27;8.60;56.60
1455;DHT22;721;48.168;12.818;2023-03-14T12:26:12;8.70;56.20
1455;DHT22;721;48.168;12.818;2023-03-14T12:28:43;8.80;55.50
1455;DHT22;721;48.168;12.818;2023-03-14T12:31:41;8.80;54.90
1455;DHT22;721;48.168;12.818;2023-03-14T12:34:31;8.80;55.20
1455;DHT22;721;48.168;12.818;2023-03-14T12:37:19;8.90;57.90
1455;DHT22;721;48.168;12.818;2023-03-14T12:39:56;9.00;54.50
1455;DHT22;721;48.168;12.818;2023-03-14T12:42:42;9.10;51.20
1455;DHT22;721;48.168;12.818;2023-03-14T12:45:21;9.20;49.90
1455;DHT22;721;48.168;12.818;2023-03-14T12:47:54;9.30;48.70
1455;DHT22;721;48.168;12.818;2023-03-14T12:50:28;9.30;45.60
1455;DHT22;721;48.168;12.818;2023-03-14T12:55:52;9.50;47.00
1455;DHT22;721;48.168;12.818;2023-03-14T12:58:26;9.70;44.70
1455;DHT22;721;48.168;12.818;2023-03-14T13:00:57;9.80;42.10
1455;DHT22;721;48.168;12.818;2023-03-14T13:03:36;10.00;44.20
1455;DHT22;721;48.168;12.818;2023-03-14T13:06:05;10.10;41.40
1455;DHT22;721;48.168;12.818;2023-03-14T13:08:37;10.20;38.30
1455;DHT22;721;48.168;12.818;2023-03-14T13:11:08;10.30;38.40
1455;DHT22;721;48.168;12.818;2023-03-14T13:13:37;10.30;33.40
1455;DHT22;721;48.168;12.818;2023-03-14T13:16:14;10.30;30.30
1455;DHT22;721;48.168;12.818;2023-03-14T13:18:43;10.20;29.70
1455;DHT22;721;48.168;12.818;2023-03-14T13:21:18;10.20;28.60
1455;DHT22;721;48.168;12.818;2023-03-14T13:23:57;10.10;29.40
1455;DHT22;721;48.168;12.818;2023-03-14T13:26:58;10.20;35.80
1455;DHT22;721;48.168;12.818;2023-03-14T13:29:26;10.30;34.30
1455;DHT22;721;48.168;12.818;2023-03-14T13:31:55;10.50;34.40
1455;DHT22;721;48.168;12.818;2023-03-14T13:34:25;10.70;32.20
1455;DHT22;721;48.168;12.818;2023-03-14T13:36:53;10.80;26.60
1455;DHT22;721;48.168;12.818;2023-03-14T13:39:22;10.80;25.40
1455;DHT22;721;48.168;12.818;2023-03-14T13:41:51;10.80;25.20
1455;DHT22;721;48.168;12.818;2023-03-14T13:44:23;10.80;24.80
1455;DHT22;721;48.168;12.818;2023-03-14T13:46:51;10.90;24.80
1455;DHT22;721;48.168;12.818;2023-03-14T13:49:22;10.80;25.80
1455;DHT22;721;48.168;12.818;2023-03-14T13:51:50;10.80;24.80
1455;DHT22;721;48.168;12.818;2023-03-14T13:54:20;10.70;25.00
1455;DHT22;721;48.168;12.818;2023-03-14T13:56:48;10.70;24.60
1455;DHT22;721;48.168;12.818;2023-03-14T13:59:22;10.70;25.20
1455;DHT22;721;48.168;12.818;2023-03-14T14:01:50;10.80;26.20
1455;DHT22;721;48.168;12.818;2023-03-14T14:04:19;10.80;25.60
1455;DHT22;721;48.168;12.818;2023-03-14T14:06:50;10.80;26.00
1455;DHT22;721;48.168;12.818;2023-03-14T14:09:23;10.90;26.10
1455;DHT22;721;48.168;12.818;2023-03-14T14:11:53;10.80;24.00
1455;DHT22;721;48.168;12.818;2023-03-14T14:14:23;10.80;27.10
1455;DHT22;721;48.168;12.818;2023-03-14T14:16:52;10.70;28.30
1455;DHT22;721;48.168;12.818;2023-03-14T14:19:21;10.60;30.80
1455;DHT22;721;48.168;12.818;2023-03-14T14:21:50;10.40;31.60
1455;DHT22;721;48.168;12.818;2023-03-14T14:24:17;10.40;34.80
1455;DHT22;721;48.168;12.818;2023-03-14T14:26:51;10.30;33.70
1455;DHT22;721;48.168;12.818;2023-03-14T14:29:26;10.40;35.20
1455;DHT22;721;48.168;12.818;2023-03-14T14:32:01;10.30;38.40
1455;DHT22;721;48.168;12.818;2023-03-14T14:34:28;10.30;41.00
1455;DHT22;721;48.168;12.818;2023-03-14T14:36:55;10.20;45.10
1455;DHT22;721;48.168;12.818;2023-03-14T14:39:24;10.20;44.80
1455;DHT22;721;48.168;12.818;2023-03-14T14:41:55;10.10;45.20
1455;DHT22;721;48.168;12.818;2023-03-14T14:44:30;10.10;46.80
1455;DHT22;721;48.168;12.818;2023-03-14T14:46:58;10.10;47.60
1455;DHT22;721;48.168;12.818;2023-03-14T14:49:29;10.10;48.80
1455;DHT22;721;48.168;12.818;2023-03-14T14:52:02;10.20;49.00
1455;DHT22;721;48.168;12.818;2023-03-14T14:54:34;10.20;50.00
1455;DHT22;721;48.168;12.818;2023-03-14T14:57:06;10.10;51.60
1455;DHT22;721;48.168;12.818;2023-03-14T14:59:42;10.10;52.60
1455;DHT22;721;48.168;12.818;2023-03-14T15:02:24;10.20;54.20
1455;DHT22;721;48.168;12.818;2023-03-14T15:04:53;10.00;58.10
1455;DHT22;721;48.168;12.818;2023-03-14T15:07:20;9.80;59.90
1455;DHT22;721;48.168;12.818;2023-03-14T15:09:47;9.80;55.20
1455;DHT22;721;48.168;12.818;2023-03-14T15:12:15;9.60;53.40
1455;DHT22;721;48.168;12.818;2023-03-14T15:14:42;9.60;47.10
1455;DHT22;721;48.168;12.818;2023-03-14T15:17:10;9.50;44.60
1455;DHT22;721;48.168;12.818;2023-03-14T15:19:38;9.40;45.60
1455;DHT22;721;48.168;12.818;2023-03-14T15:22:10;9.20;45.40
1455;DHT22;721;48.168;12.818;2023-03-14T15:24:38;9.20;47.90
1455;DHT22;721;48.168;12.818;2023-03-14T15:27:08;9.10;50.10
1455;DHT22;721;48.168;12.818;2023-03-14T15:29:38;9.00;47.20
1455;DHT22;721;48.168;12.818;2023-03-14T15:32:05;9.00;48.40
1455;DHT22;721;48.168;12.818;2023-03-14T15:34:32;8.90;45.10
1455;DHT22;721;48.168;12.818;2023-03-14T15:36:59;8.90;40.30
1455;DHT22;721;48.168;12.818;2023-03-14T15:39:28;8.90;38.70
1455;DHT22;721;48.168;12.818;2023-03-14T15:41:55;8.80;42.10
1455;DHT22;721;48.168;12.818;2023-03-14T15:44:22;8.70;46.60
1455;DHT22;721;48.168;12.818;2023-03-14T15:46:50;8.50;48.40
1455;DHT22;721;48.168;12.818;2023-03-14T15:49:17;8.50;51.00
1455;DHT22;721;48.168;12.818;2023-03-14T15:51:44;8.40;46.60
1455;DHT22;721;48.168;12.818;2023-03-14T15:54:11;8.60;52.80
1455;DHT22;721;48.168;12.818;2023-03-14T15:56:37;8.20;54.90
1455;DHT22;721;48.168;12.818;2023-03-14T15:59:04;8.10;56.70
1455;DHT22;721;48.168;12.818;2023-03-14T16:01:31;8.00;63.40
1455;DHT22;721;48.168;12.818;2023-03-14T16:03:59;8.00;63.40
1455;DHT22;721;48.168;12.818;2023-03-14T16:06:27;8.00;61.70
1455;DHT22;721;48.168;12.818;2023-03-14T16:08:56;8.00;60.20
1455;DHT22;721;48.168;12.818;2023-03-14T16:11:23;8.00;62.70
1455;DHT22;721;48.168;12.818;2023-03-14T16:13:50;8.00;64.30
1455;DHT22;721;48.168;12.818;2023-03-14T16:16:17;8.00;65.20
1455;DHT22;721;48.168;12.818;2023-03-14T16:18:44;7.90;63.60
1455;DHT22;721;48.168;12.818;2023-03-14T16:21:14;7.90;61.70
1455;DHT22;721;48.168;12.818;2023-03-14T16:23:41;7.80;55.70
1455;DHT22;721;48.168;12.818;2023-03-14T16:26:09;7.80;55.20
1455;DHT22;721;48.168;12.818;2023-03-14T16:28:37;7.80;57.80
1455;DHT22;721;48.168;12.818;2023-03-14T16:31:06;7.70;60.50
1455;DHT22;721;48.168;12.818;2023-03-14T16:33:34;7.70;63.40
1455;DHT22;721;48.168;12.818;2023-03-14T16:36:03;7.60;64.50
1455;DHT22;721;48.168;12.818;2023-03-14T16:38:34;7.60;66.30
1455;DHT22;721;48.168;12.818;2023-03-14T16:41:03;7.50;59.80
1455;DHT22;721;48.168;12.818;2023-03-14T16:43:30;7.50;57.20
1455;DHT22;721;48.168;12.818;2023-03-14T16:45:59;7.60;58.50